Time;durP1;ratioP1;P1;durP2;ratioP2;P2;SDS_P1;SDS_P2;PMS_P1;PMS_P2;Temp;Humidity;BMP_temperature;BMP_pressure;BME280_temperature;BME280_humidity;BME280_pressure;Samples;Min_cycle;Max_cycle;Signal;HPM_P1;HPM_P2
2021/11/30 00:01:51;;;;;;;;;27.75;27.75;5.30;65.00;;;;;;5053100;28;8862;-72
2021/11/30 00:04:18;;;;;;;;;24.50;24.50;5.50;64.20;;;;;;5054738;28;8767;-72
2021/11/30 00:06:46;;;;;;;;;27.75;27.75;5.70;63.80;;;;;;5054541;28;8826;-73
2021/11/30 00:12:05;;;;;;;;;30.75;30.75;6.50;61.80;;;;;;5054893;28;8755;-73
2021/11/30 00:14:31;;;;;;;;;31.25;31.25;6.40;61.20;;;;;;5054715;28;8759;-73
2021/11/30 00:16:58;;;;;;;;;25.25;24.50;6.30;61.20;;;;;;5054740;28;9429;-72
2021/11/30 00:19:24;;;;;;;;;25.75;22.50;6.50;60.80;;;;;;5053454;28;8842;-73
2021/11/30 00:21:50;;;;;;;;;28.75;28.75;6.30;61.10;;;;;;5054498;28;8755;-73
2021/11/30 00:24:16;;;;;;;;;24.75;24.75;6.00;62.60;;;;;;5054398;28;8790;-73
2021/11/30 00:26:42;;;;;;;;;26.25;26.25;6.40;61.70;;;;;;5054433;28;8766;-72
2021/11/30 00:29:07;;;;;;;;;35.00;34.75;6.40;61.70;;;;;;5052500;28;8775;-73
2021/11/30 00:31:33;;;;;;;;;29.25;27.75;6.60;60.80;;;;;;5054295;28;8944;-73
2021/11/30 00:33:59;;;;;;;;;22.75;22.75;6.70;60.20;;;;;;5054335;28;8763;-72
2021/11/30 00:36:24;;;;;;;;;37.00;35.75;6.80;59.50;;;;;;5054558;28;8867;-72
2021/11/30 00:38:50;;;;;;;;;22.50;22.50;6.50;60.50;;;;;;5053190;28;8845;-72
2021/11/30 00:41:16;;;;;;;;;27.50;27.50;6.30;61.10;;;;;;5053178;28;9225;-74
2021/11/30 00:43:42;;;;;;;;;27.50;27.25;5.80;62.20;;;;;;5054295;28;8755;-73
2021/11/30 00:48:52;;;;;;;;;25.00;25.00;5.70;63.60;;;;;;5054295;28;8739;-74
2021/11/30 00:51:19;;;;;;;;;27.75;27.75;5.50;64.40;;;;;;5054434;28;8935;-74
2021/11/30 00:53:47;;;;;;;;;24.25;24.25;5.50;64.30;;;;;;5054165;28;8759;-73
2021/11/30 00:56:14;;;;;;;;;26.25;26.25;5.50;64.30;;;;;;5054148;28;8743;-72
2021/11/30 00:58:41;;;;;;;;;25.50;25.00;5.60;64.10;;;;;;5053937;28;8890;-72
2021/11/30 01:01:07;;;;;;;;;30.25;30.25;5.60;63.40;;;;;;5053021;28;8770;-72
2021/11/30 01:03:33;;;;;;;;;31.75;30.00;5.40;64.30;;;;;;5054042;28;8775;-72
2021/11/30 01:05:59;;;;;;;;;34.25;31.50;5.30;65.00;;;;;;5053865;28;8791;-72
2021/11/30 01:08:25;;;;;;;;;28.75;28.75;5.30;65.10;;;;;;5053761;28;8870;-72
2021/11/30 01:10:51;;;;;;;;;29.75;29.75;5.10;65.40;;;;;;5053973;28;8774;-72
2021/11/30 01:13:18;;;;;;;;;26.50;24.75;5.20;65.20;;;;;;5054022;28;8778;-72
2021/11/30 01:15:44;;;;;;;;;29.25;29.25;5.30;64.80;;;;;;5053865;28;8823;-73
2021/11/30 01:18:10;;;;;;;;;28.25;27.75;5.50;64.60;;;;;;5053841;28;8897;-72
2021/11/30 01:20:36;;;;;;;;;32.75;31.50;5.60;63.90;;;;;;5053851;28;8759;-73
2021/11/30 01:23:03;;;;;;;;;31.75;30.25;5.60;63.50;;;;;;5053871;28;8813;-72
2021/11/30 01:25:29;;;;;;;;;31.50;31.50;5.60;63.80;;;;;;5054142;28;8775;-72
2021/11/30 01:27:55;;;;;;;;;31.00;31.00;5.90;63.90;;;;;;5054058;28;8872;-73
2021/11/30 01:30:22;;;;;;;;;34.00;34.00;5.50;63.60;;;;;;5053991;28;8763;-72
2021/11/30 01:32:48;;;;;;;;;20.25;19.50;5.20;64.40;;;;;;5052728;28;8783;-73
2021/11/30 01:35:16;;;;;;;;;29.75;29.75;5.60;63.60;;;;;;5053819;28;8860;-73
2021/11/30 01:37:42;;;;;;;;;27.75;27.75;5.40;63.80;;;;;;5053654;28;8771;-73
2021/11/30 01:40:14;;;;;;;;;28.00;28.00;5.00;64.90;;;;;;5055448;28;8876;-73
2021/11/30 01:42:44;;;;;;;;;30.75;28.25;5.30;64.20;;;;;;5057469;28;8775;-73
2021/11/30 01:50:53;;;;;;;;;31.50;31.50;5.30;64.30;;;;;;5057596;28;8767;-72
2021/11/30 01:53:19;;;;;;;;;23.00;23.00;5.30;64.20;;;;;;5057236;28;8763;-74
2021/11/30 01:55:45;;;;;;;;;30.50;29.25;5.40;64.80;;;;;;5057433;28;8774;-73
2021/11/30 01:58:13;;;;;;;;;28.50;28.25;5.20;64.10;;;;;;5057025;28;8829;-72
2021/11/30 02:00:41;;;;;;;;;27.25;27.25;5.20;64.70;;;;;;5057144;28;9400;-72
2021/11/30 02:03:07;;;;;;;;;29.50;29.50;5.00;64.80;;;;;;5056977;28;8840;-72
2021/11/30 02:05:37;;;;;;;;;23.00;22.75;5.10;64.80;;;;;;5055883;28;8794;-74
2021/11/30 02:08:04;;;;;;;;;33.00;33.00;5.20;64.20;;;;;;5055966;28;8880;-73
2021/11/30 02:10:31;;;;;;;;;25.75;25.75;5.30;64.10;;;;;;5057194;28;8774;-74
2021/11/30 02:12:57;;;;;;;;;30.00;30.00;5.20;64.40;;;;;;5056965;28;8763;-74
2021/11/30 02:15:26;;;;;;;;;31.75;30.50;5.00;65.00;;;;;;5056640;28;8794;-73
2021/11/30 02:17:53;;;;;;;;;29.50;28.50;5.00;65.30;;;;;;5056674;28;8817;-73
2021/11/30 02:20:19;;;;;;;;;28.75;28.75;5.10;65.00;;;;;;5055521;28;8810;-73
2021/11/30 02:22:50;;;;;;;;;29.25;29.25;5.00;65.20;;;;;;5056736;28;8763;-74
2021/11/30 02:25:17;;;;;;;;;29.00;29.00;5.10;64.90;;;;;;5055659;28;8783;-74
2021/11/30 02:27:43;;;;;;;;;28.75;28.75;5.00;64.90;;;;;;5055571;28;8783;-74
2021/11/30 02:30:09;;;;;;;;;32.75;31.25;5.10;64.80;;;;;;5056715;28;8817;-74
2021/11/30 02:32:35;;;;;;;;;31.00;31.00;5.10;64.90;;;;;;5056422;28;8767;-74
2021/11/30 02:35:00;;;;;;;;;29.00;29.00;5.00;65.00;;;;;;5056476;28;8771;-73
2021/11/30 02:37:29;;;;;;;;;26.75;26.75;5.20;64.70;;;;;;5055351;28;8783;-73
2021/11/30 02:39:55;;;;;;;;;28.50;28.50;5.20;64.20;;;;;;5056330;28;8822;-72
2021/11/30 02:42:21;;;;;;;;;27.25;27.25;5.10;65.00;;;;;;5056337;28;8739;-72
2021/11/30 02:44:46;;;;;;;;;28.25;28.25;5.10;64.50;;;;;;5056365;28;8770;-74
2021/11/30 02:47:14;;;;;;;;;31.50;30.25;4.90;65.50;;;;;;5056151;28;8802;-72
2021/11/30 02:49:43;;;;;;;;;30.75;29.75;5.00;64.90;;;;;;5056483;28;8762;-73
2021/11/30 02:52:12;;;;;;;;;31.25;31.25;5.00;64.90;;;;;;5055122;28;8767;-73
2021/11/30 02:54:43;;;;;;;;;27.00;27.00;4.80;66.20;;;;;;5056339;28;8755;-73
2021/11/30 02:57:11;;;;;;;;;33.25;30.50;4.80;66.10;;;;;;5056060;28;8840;-72
2021/11/30 02:59:42;;;;;;;;;29.50;28.75;4.80;66.60;;;;;;5055271;28;8820;-74
2021/11/30 03:02:16;;;;;;;;;29.25;29.25;4.90;65.90;;;;;;5055982;28;8794;-74
2021/11/30 03:04:44;;;;;;;;;31.50;31.50;4.80;66.20;;;;;;5055936;28;8751;-73
2021/11/30 03:07:16;;;;;;;;;34.00;34.00;4.70;66.50;;;;;;5055718;28;8791;-74
2021/11/30 03:09:43;;;;;;;;;24.75;24.75;4.80;66.50;;;;;;5054731;28;8829;-74
2021/11/30 03:12:09;;;;;;;;;30.25;30.25;4.80;66.60;;;;;;5055999;28;8771;-73
2021/11/30 03:14:36;;;;;;;;;33.50;33.50;5.00;65.90;;;;;;5055709;28;9448;-72
2021/11/30 03:17:02;;;;;;;;;24.50;24.00;5.00;65.90;;;;;;5055692;28;8928;-72
2021/11/30 03:19:29;;;;;;;;;32.75;32.75;4.90;66.20;;;;;;5055805;28;8894;-74
2021/11/30 03:21:56;;;;;;;;;29.25;29.25;4.80;66.10;;;;;;5055502;28;8771;-74
2021/11/30 03:24:22;;;;;;;;;32.00;32.00;4.70;66.80;;;;;;5055515;28;8747;-72
2021/11/30 03:26:48;;;;;;;;;31.50;31.50;4.60;67.50;;;;;;5055523;28;8759;-72
2021/11/30 03:29:14;;;;;;;;;31.50;30.25;4.60;67.30;;;;;;5055342;28;8814;-73
2021/11/30 03:34:09;;;;;;;;;28.75;27.75;4.70;66.60;;;;;;5055318;28;8948;-72
2021/11/30 03:36:38;;;;;;;;;32.00;32.00;5.00;66.10;;;;;;5055240;28;8786;-72
2021/11/30 03:39:07;;;;;;;;;28.25;28.25;4.80;66.30;;;;;;5055358;28;8857;-72
2021/11/30 03:41:33;;;;;;;;;27.75;27.75;4.50;67.30;;;;;;5055152;28;8759;-72
2021/11/30 03:44:04;;;;;;;;;23.75;23.75;4.60;67.40;;;;;;5055373;28;8790;-73
2021/11/30 03:46:31;;;;;;;;;30.50;30.50;4.50;67.30;;;;;;5055075;28;8810;-74
2021/11/30 03:48:58;;;;;;;;;23.50;23.50;4.60;67.30;;;;;;5055365;28;8747;-72
2021/11/30 03:51:23;;;;;;;;;27.00;27.00;4.60;66.90;;;;;;5055242;28;9672;-73
2021/11/30 03:53:49;;;;;;;;;24.50;23.25;4.90;66.10;;;;;;5054992;28;8862;-72
2021/11/30 03:56:15;;;;;;;;;16.25;13.75;4.80;66.00;;;;;;5054955;28;8755;-72
2021/11/30 03:58:41;;;;;;;;;30.25;29.50;4.70;66.70;;;;;;5054849;28;8811;-73
2021/11/30 04:01:07;;;;;;;;;29.50;29.50;4.50;66.70;;;;;;5055090;28;8873;-72
2021/11/30 04:03:34;;;;;;;;;31.00;27.25;4.40;67.50;;;;;;5054567;28;8865;-72
2021/11/30 04:06:02;;;;;;;;;24.75;24.75;4.40;67.70;;;;;;5054765;28;8829;-72
2021/11/30 04:08:28;;;;;;;;;22.25;22.25;4.40;67.80;;;;;;5054802;28;8836;-72
2021/11/30 04:10:54;;;;;;;;;27.75;27.25;4.50;67.60;;;;;;5054626;28;8802;-71
2021/11/30 04:13:20;;;;;;;;;26.50;26.50;4.40;67.70;;;;;;5054937;28;8790;-71
2021/11/30 04:15:45;;;;;;;;;31.50;28.75;4.50;67.70;;;;;;5054597;28;8847;-71
2021/11/30 04:18:11;;;;;;;;;39.00;35.25;4.50;67.20;;;;;;5054485;28;8806;-71
2021/11/30 04:20:37;;;;;;;;;26.50;26.50;4.30;68.20;;;;;;5054572;28;8747;-71
2021/11/30 04:23:03;;;;;;;;;29.75;28.50;4.30;68.20;;;;;;5054508;28;8770;-71
2021/11/30 04:25:29;;;;;;;;;29.00;27.50;4.40;67.50;;;;;;5054483;28;8782;-72
2021/11/30 04:27:55;;;;;;;;;29.00;29.00;4.50;67.20;;;;;;5054387;28;8775;-71
2021/11/30 04:30:21;;;;;;;;;26.25;25.75;4.40;67.80;;;;;;5054633;28;8763;-71
2021/11/30 04:32:46;;;;;;;;;26.25;26.25;4.40;67.60;;;;;;5054583;28;8775;-71
2021/11/30 04:35:13;;;;;;;;;30.75;30.75;4.40;67.50;;;;;;5054442;28;9402;-71
2021/11/30 04:37:39;;;;;;;;;31.50;30.75;4.30;67.80;;;;;;5054437;28;8771;-71
2021/11/30 04:40:11;;;;;;;;;30.25;30.25;4.20;68.20;;;;;;5063710;28;8901;-71
2021/11/30 04:42:38;;;;;;;;;20.50;20.50;4.00;68.60;;;;;;5066876;28;8792;-71
2021/11/30 04:45:07;;;;;;;;;33.00;31.50;4.10;68.40;;;;;;5056061;28;8799;-72
2021/11/30 04:47:36;;;;;;;;;28.50;28.50;4.10;68.50;;;;;;5054674;28;8795;-71
2021/11/30 04:50:10;;;;;;;;;23.75;23.75;4.00;68.60;;;;;;5054289;28;8794;-71
2021/11/30 04:52:37;;;;;;;;;39.00;35.00;4.10;68.70;;;;;;5054305;28;9365;-72
2021/11/30 04:55:03;;;;;;;;;33.00;31.75;4.10;68.60;;;;;;5054535;28;9412;-72
2021/11/30 04:57:29;;;;;;;;;34.50;34.50;4.20;67.80;;;;;;5053128;28;8782;-71
2021/11/30 04:59:55;;;;;;;;;29.00;29.00;4.40;67.60;;;;;;5054060;28;9407;-71
2021/11/30 05:02:21;;;;;;;;;25.50;25.50;4.20;68.10;;;;;;5054205;28;8794;-71
2021/11/30 05:04:47;;;;;;;;;32.50;31.25;4.40;67.30;;;;;;5054095;28;8751;-71
2021/11/30 05:07:17;;;;;;;;;21.25;21.25;4.20;67.80;;;;;;5053964;28;8795;-71
2021/11/30 05:09:43;;;;;;;;;32.75;32.75;4.30;67.50;;;;;;5054070;28;8841;-71
2021/11/30 05:12:10;;;;;;;;;27.25;27.25;4.20;67.80;;;;;;5054014;28;8840;-71
2021/11/30 05:14:37;;;;;;;;;29.75;27.50;4.00;68.50;;;;;;5055014;28;8770;-71
2021/11/30 05:17:04;;;;;;;;;32.25;32.25;4.00;68.60;;;;;;5057971;28;8799;-72
2021/11/30 05:19:30;;;;;;;;;41.00;39.75;3.90;69.10;;;;;;5057797;28;8844;-72
2021/11/30 05:21:56;;;;;;;;;32.50;32.50;3.90;68.90;;;;;;5057751;28;8883;-72
2021/11/30 05:24:22;;;;;;;;;34.00;34.00;3.70;69.60;;;;;;5056659;28;8798;-71
2021/11/30 05:26:48;;;;;;;;;36.00;36.00;3.80;69.40;;;;;;5057686;28;8798;-71
2021/11/30 05:29:15;;;;;;;;;34.75;34.75;3.80;69.40;;;;;;5057683;28;8868;-71
2021/11/30 05:31:41;;;;;;;;;34.25;34.25;3.90;68.90;;;;;;5057828;28;8828;-71
2021/11/30 05:34:07;;;;;;;;;32.50;32.50;3.90;68.80;;;;;;5057960;28;8748;-73
2021/11/30 05:36:33;;;;;;;;;35.00;35.00;4.10;68.40;;;;;;5057555;28;9522;-72
2021/11/30 05:39:00;;;;;;;;;32.00;32.00;4.20;67.70;;;;;;5060689;28;8815;-70
2021/11/30 05:41:26;;;;;;;;;27.00;27.00;4.10;67.80;;;;;;5064383;28;8795;-70
2021/11/30 05:43:53;;;;;;;;;33.00;30.25;3.90;68.50;;;;;;5070665;28;8865;-73
2021/11/30 05:46:20;;;;;;;;;34.50;34.50;3.90;68.60;;;;;;5066253;28;8934;-71
2021/11/30 05:48:46;;;;;;;;;29.00;29.00;4.00;68.00;;;;;;5066596;28;8776;-70
2021/11/30 05:51:12;;;;;;;;;27.50;26.75;3.70;69.20;;;;;;5066278;28;8898;-72
2021/11/30 05:53:38;;;;;;;;;29.00;29.00;3.90;68.40;;;;;;5066726;28;8790;-70
2021/11/30 05:56:07;;;;;;;;;28.75;27.50;4.00;68.50;;;;;;5068576;28;8830;-71
2021/11/30 05:58:36;;;;;;;;;30.00;28.75;4.20;67.40;;;;;;5065561;28;8787;-72
2021/11/30 06:06:18;;;;;;;;;32.00;31.25;3.90;68.20;;;;;;5076576;28;8800;-68
2021/11/30 06:08:45;;;;;;;;;26.25;26.25;3.90;68.00;;;;;;5077235;28;8881;-68
2021/11/30 06:11:10;;;;;;;;;26.00;23.75;4.00;68.20;;;;;;5076801;28;8849;-70
2021/11/30 06:13:36;;;;;;;;;24.75;24.75;3.90;68.20;;;;;;5076908;28;8749;-71
2021/11/30 06:16:02;;;;;;;;;33.00;33.00;3.80;68.90;;;;;;5076880;28;8816;-72
2021/11/30 06:18:28;;;;;;;;;30.00;29.00;3.70;69.40;;;;;;5075562;28;8907;-67
2021/11/30 06:20:54;;;;;;;;;28.00;28.00;3.70;69.30;;;;;;5076699;28;8793;-65
2021/11/30 06:23:20;;;;;;;;;37.25;37.25;3.80;68.70;;;;;;5076696;28;8859;-66
2021/11/30 06:25:45;;;;;;;;;36.25;35.75;4.10;68.30;;;;;;5076767;28;8791;-64
2021/11/30 06:28:11;;;;;;;;;37.25;35.50;4.10;67.90;;;;;;5076499;28;8784;-65
2021/11/30 06:30:37;;;;;;;;;30.75;30.75;4.00;68.10;;;;;;5076516;28;8884;-65
2021/11/30 06:33:03;;;;;;;;;34.00;34.00;4.10;67.60;;;;;;5076652;28;8879;-65
2021/11/30 06:35:29;;;;;;;;;38.50;38.50;4.10;67.60;;;;;;5076289;28;8842;-64
2021/11/30 06:37:55;;;;;;;;;28.50;28.50;4.10;67.70;;;;;;5076180;28;8872;-65
2021/11/30 06:40:21;;;;;;;;;36.25;36.25;4.30;66.90;;;;;;5076379;28;8825;-65
2021/11/30 06:42:47;;;;;;;;;26.50;26.50;4.20;66.90;;;;;;5076232;28;8784;-65
2021/11/30 06:45:12;;;;;;;;;28.25;28.25;4.30;66.80;;;;;;5076158;28;8761;-69
2021/11/30 06:47:42;;;;;;;;;34.50;33.75;4.20;66.90;;;;;;5076440;28;8757;-69
2021/11/30 06:50:09;;;;;;;;;31.25;31.25;4.40;66.60;;;;;;5076119;28;8764;-69
2021/11/30 06:52:37;;;;;;;;;28.75;28.75;4.30;66.20;;;;;;5075989;28;8788;-68
2021/11/30 06:55:03;;;;;;;;;30.50;30.50;4.30;67.20;;;;;;5076085;28;8838;-68
2021/11/30 06:57:29;;;;;;;;;32.75;32.75;4.50;65.90;;;;;;5076203;28;8807;-69
2021/11/30 07:00:00;;;;;;;;;34.50;32.50;4.50;65.80;;;;;;5075921;28;8800;-68
2021/11/30 07:02:25;;;;;;;;;31.50;30.50;4.20;66.40;;;;;;5076014;28;8863;-70
2021/11/30 07:04:54;;;;;;;;;29.00;29.00;4.00;67.10;;;;;;5074970;28;8903;-68
2021/11/30 07:08:12;;;;;;;;;29.75;29.00;4.20;66.80;;;;;;5075747;28;8824;-69
2021/11/30 07:10:23;;;;;;;;;24.75;24.75;4.10;67.50;;;;;;5072609;28;8815;-68
2021/11/30 07:13:35;;;;;;;;;51.25;45.00;4.10;67.00;;;;;;5075629;28;8772;-68
2021/11/30 07:15:35;;;;;;;;;30.25;30.25;3.90;67.60;;;;;;5071796;28;8816;-70
2021/11/30 07:18:02;;;;;;;;;30.50;30.50;3.80;68.20;;;;;;5075488;28;8764;-69
2021/11/30 07:20:28;;;;;;;;;35.00;34.00;3.80;68.00;;;;;;5075602;28;8776;-69
2021/11/30 07:22:57;;;;;;;;;27.50;27.50;3.70;68.10;;;;;;5074469;28;8807;-68
2021/11/30 07:25:24;;;;;;;;;25.50;25.50;3.70;68.40;;;;;;5075469;28;8776;-69
2021/11/30 07:27:50;;;;;;;;;27.50;27.50;4.00;67.40;;;;;;5075372;28;8783;-70
2021/11/30 07:30:16;;;;;;;;;31.00;31.00;3.90;67.40;;;;;;5075620;28;8765;-68
2021/11/30 07:32:42;;;;;;;;;29.25;29.25;4.10;67.00;;;;;;5075541;28;9488;-68
2021/11/30 07:35:08;;;;;;;;;26.00;26.00;4.00;66.80;;;;;;5075304;28;8772;-70
2021/11/30 07:37:34;;;;;;;;;28.50;28.00;4.20;66.10;;;;;;5075043;28;8809;-69
2021/11/30 07:40:00;;;;;;;;;30.75;30.50;4.20;66.10;;;;;;5075335;28;9462;-68
2021/11/30 07:42:30;;;;;;;;;26.25;26.25;4.20;65.90;;;;;;5075140;28;8879;-69
2021/11/30 07:44:56;;;;;;;;;27.50;26.50;4.20;66.20;;;;;;5075178;28;8776;-68
2021/11/30 07:47:22;;;;;;;;;30.00;27.50;4.10;66.20;;;;;;5075403;28;8819;-68
2021/11/30 07:49:48;;;;;;;;;28.00;28.00;4.10;66.40;;;;;;5075278;28;8772;-68
2021/11/30 07:52:14;;;;;;;;;26.00;26.00;4.20;65.90;;;;;;5075012;28;9418;-68
2021/11/30 07:54:40;;;;;;;;;30.00;29.50;4.30;65.20;;;;;;5074741;28;8792;-69
2021/11/30 07:57:06;;;;;;;;;23.50;23.50;4.40;65.10;;;;;;5075074;28;8780;-71
2021/11/30 07:59:32;;;;;;;;;29.50;29.50;4.30;65.30;;;;;;5074776;28;8788;-69
2021/11/30 08:01:59;;;;;;;;;26.50;25.50;4.40;65.30;;;;;;5074823;28;8768;-70
2021/11/30 08:04:25;;;;;;;;;35.00;34.00;4.40;64.60;;;;;;5075010;28;9508;-68
2021/11/30 08:06:51;;;;;;;;;33.50;31.50;4.50;64.80;;;;;;5074693;28;8839;-70
2021/11/30 08:09:16;;;;;;;;;21.50;21.50;4.70;64.20;;;;;;5074670;28;8780;-68
2021/11/30 08:11:42;;;;;;;;;30.50;26.50;4.90;63.00;;;;;;5074871;28;8867;-68
2021/11/30 08:14:10;;;;;;;;;27.75;27.75;4.80;63.10;;;;;;5074647;28;8756;-69
2021/11/30 08:16:36;;;;;;;;;24.00;24.00;4.70;63.70;;;;;;5074610;28;8823;-67
2021/11/30 08:19:02;;;;;;;;;26.00;26.00;4.80;62.80;;;;;;5074533;28;8788;-67
2021/11/30 08:21:29;;;;;;;;;26.50;25.00;4.80;62.90;;;;;;5074793;28;8821;-67
2021/11/30 08:23:55;;;;;;;;;25.50;25.50;4.90;62.60;;;;;;5074769;28;9463;-67
2021/11/30 08:26:21;;;;;;;;;27.00;27.00;4.80;63.10;;;;;;5074451;28;8744;-70
2021/11/30 08:28:47;;;;;;;;;26.00;26.00;5.00;62.80;;;;;;5074707;28;9669;-69
2021/11/30 08:31:13;;;;;;;;;24.25;24.25;5.10;62.60;;;;;;5074415;28;8753;-67
2021/11/30 08:33:39;;;;;;;;;30.75;30.75;5.10;62.60;;;;;;5074410;28;8787;-69
2021/11/30 08:36:05;;;;;;;;;23.75;23.75;5.00;62.60;;;;;;5074719;28;8753;-69
2021/11/30 08:38:31;;;;;;;;;38.25;37.00;5.10;62.40;;;;;;5074502;28;9434;-69
2021/11/30 08:40:58;;;;;;;;;21.25;21.25;5.30;62.30;;;;;;5074551;28;9657;-69
2021/11/30 08:43:25;;;;;;;;;24.75;24.75;5.40;61.00;;;;;;5074500;28;9443;-68
2021/11/30 08:45:52;;;;;;;;;26.25;26.25;5.30;61.00;;;;;;5074279;28;8824;-69
2021/11/30 08:48:18;;;;;;;;;26.50;26.50;5.40;60.70;;;;;;5074190;28;8784;-69
2021/11/30 08:50:44;;;;;;;;;27.50;27.50;5.40;61.40;;;;;;5076709;28;8819;-68
2021/11/30 08:53:10;;;;;;;;;27.75;27.75;5.70;60.80;;;;;;5078418;28;8857;-68
2021/11/30 08:55:36;;;;;;;;;26.25;26.25;5.70;59.80;;;;;;5078245;28;8772;-67
2021/11/30 08:58:02;;;;;;;;;31.50;31.50;5.50;59.80;;;;;;5078253;28;8879;-68
2021/11/30 09:00:28;;;;;;;;;27.75;27.75;5.60;60.30;;;;;;5078221;28;8761;-68
2021/11/30 09:02:55;;;;;;;;;29.00;27.25;5.80;59.30;;;;;;5078426;28;8945;-69
2021/11/30 09:05:21;;;;;;;;;28.50;27.00;6.10;58.60;;;;;;5077787;28;8883;-67
2021/11/30 09:07:48;;;;;;;;;21.25;21.25;6.20;58.00;;;;;;5078102;28;8776;-68
2021/11/30 09:10:17;;;;;;;;;24.00;24.00;6.30;56.40;;;;;;5078073;28;8773;-69
2021/11/30 09:12:43;;;;;;;;;29.25;26.25;6.70;56.40;;;;;;5077975;28;8765;-70
2021/11/30 09:15:09;;;;;;;;;23.75;21.25;6.90;54.60;;;;;;5077986;28;9418;-68
2021/11/30 09:17:37;;;;;;;;;32.75;29.50;7.10;54.70;;;;;;5077806;28;8791;-67
2021/11/30 09:20:07;;;;;;;;;26.75;22.50;7.10;54.90;;;;;;5077825;28;8993;-68
2021/11/30 09:22:33;;;;;;;;;27.50;23.75;6.60;56.00;;;;;;5077808;28;8788;-68
2021/11/30 09:25:01;;;;;;;;;25.25;24.75;6.40;57.40;;;;;;5077772;28;8782;-69
2021/11/30 09:27:27;;;;;;;;;20.75;20.75;6.30;57.60;;;;;;5077772;28;8772;-67
2021/11/30 09:29:54;;;;;;;;;22.75;22.75;6.20;58.10;;;;;;5077788;28;8768;-67
2021/11/30 09:32:24;;;;;;;;;21.00;21.00;6.20;58.30;;;;;;5077944;28;8748;-68
2021/11/30 09:34:50;;;;;;;;;19.50;19.50;6.10;58.60;;;;;;5077608;28;8765;-67
2021/11/30 09:37:16;;;;;;;;;23.50;23.50;5.70;58.90;;;;;;5077788;28;8777;-68
2021/11/30 09:39:41;;;;;;;;;21.00;21.00;5.60;59.80;;;;;;5077721;28;8780;-68
2021/11/30 09:42:08;;;;;;;;;20.50;20.50;5.50;59.50;;;;;;5078003;28;8768;-68
2021/11/30 09:44:34;;;;;;;;;26.25;26.25;5.70;59.90;;;;;;5077390;28;8765;-69
2021/11/30 09:47:01;;;;;;;;;23.50;23.50;5.90;59.30;;;;;;5077342;28;8881;-69
2021/11/30 09:49:27;;;;;;;;;22.00;22.00;5.80;60.30;;;;;;5077357;28;8777;-68
2021/11/30 09:51:53;;;;;;;;;26.00;26.00;5.80;59.60;;;;;;5077361;28;8756;-68
2021/11/30 09:54:19;;;;;;;;;29.00;29.00;6.10;59.40;;;;;;5077216;28;8795;-69
2021/11/30 09:56:45;;;;;;;;;21.75;21.75;6.40;58.90;;;;;;5077111;28;8784;-68
2021/11/30 09:59:11;;;;;;;;;20.50;20.50;6.30;58.90;;;;;;5077025;28;8812;-68
2021/11/30 10:01:37;;;;;;;;;20.25;20.25;6.30;58.30;;;;;;5076918;28;8765;-68
2021/11/30 10:04:04;;;;;;;;;24.50;24.50;6.30;58.60;;;;;;5077103;28;8760;-70
2021/11/30 10:06:31;;;;;;;;;15.00;15.00;6.40;57.60;;;;;;5075968;28;8938;-69
2021/11/30 10:08:57;;;;;;;;;23.25;23.25;6.30;57.00;;;;;;5076979;28;8764;-68
2021/11/30 10:11:34;;;;;;;;;24.00;23.50;6.00;58.30;;;;;;5077151;28;9519;-70
2021/11/30 10:14:23;;;;;;;;;24.25;23.75;6.10;58.70;;;;;;5077109;28;8818;-68
2021/11/30 10:17:07;;;;;;;;;24.50;23.75;6.10;58.00;;;;;;5077083;28;8796;-70
2021/11/30 10:19:33;;;;;;;;;21.75;21.75;5.90;59.40;;;;;;5076804;28;8802;-71
2021/11/30 10:21:59;;;;;;;;;21.50;21.50;6.10;59.40;;;;;;5076937;28;8765;-70
2021/11/30 10:24:25;;;;;;;;;28.50;26.50;6.10;58.70;;;;;;5076690;28;8955;-67
2021/11/30 10:26:55;;;;;;;;;22.25;22.25;6.10;58.10;;;;;;5076635;28;8744;-68
2021/11/30 10:29:21;;;;;;;;;22.75;22.75;6.30;57.60;;;;;;5076905;28;8764;-68
2021/11/30 10:31:50;;;;;;;;;26.25;26.25;6.30;58.30;;;;;;5076726;28;8879;-67
2021/11/30 10:34:29;;;;;;;;;20.75;20.75;6.50;57.10;;;;;;5076755;28;8867;-67
2021/11/30 10:37:09;;;;;;;;;22.50;22.50;6.70;56.80;;;;;;5076492;28;8749;-68
2021/11/30 10:39:39;;;;;;;;;28.75;26.00;6.80;55.90;;;;;;5076378;28;8808;-67
2021/11/30 10:42:17;;;;;;;;;33.00;25.00;7.10;55.20;;;;;;5076614;28;8780;-69
2021/11/30 10:44:45;;;;;;;;;27.50;23.00;8.20;52.60;;;;;;5076309;28;8775;-67
2021/11/30 10:47:14;;;;;;;;;23.00;19.33;10.10;49.20;;;;;;5076926;28;8803;-70
2021/11/30 10:50:04;;;;;;;;;25.33;25.33;12.90;43.90;;;;;;5076254;28;8791;-70
2021/11/30 10:52:32;;;;;;;;;22.00;22.00;14.00;39.80;;;;;;5075857;28;8788;-71
2021/11/30 10:55:16;;;;;;;;;20.00;20.00;14.70;37.60;;;;;;5076099;28;8787;-67
2021/11/30 10:57:44;;;;;;;;;20.67;20.00;13.50;38.60;;;;;;5076223;28;9480;-69
2021/11/30 11:00:19;;;;;;;;;25.00;22.00;15.20;36.30;;;;;;5075660;28;8830;-68
2021/11/30 11:03:11;;;;;;;;;19.67;19.67;13.60;38.00;;;;;;5076154;28;8827;-68
2021/11/30 11:05:40;;;;;;;;;22.00;20.67;12.70;40.20;;;;;;5075359;28;9406;-69
2021/11/30 11:08:10;;;;;;;;;21.00;21.00;13.70;40.10;;;;;;5075776;28;8833;-69
2021/11/30 11:10:42;;;;;;;;;24.33;22.67;16.40;35.20;;;;;;5075563;28;8756;-69
2021/11/30 11:13:27;;;;;;;;;24.33;22.67;19.60;30.60;;;;;;5075134;28;8895;-69
2021/11/30 11:16:04;;;;;;;;;21.00;20.67;21.30;27.60;;;;;;5075790;28;8828;-70
2021/11/30 11:18:36;;;;;;;;;17.67;15.67;21.90;27.20;;;;;;5075564;28;9572;-71
2021/11/30 11:21:08;;;;;;;;;16.67;16.67;18.00;27.50;;;;;;5075524;28;8781;-71
2021/11/30 11:23:34;;;;;;;;;19.67;19.67;14.10;34.70;;;;;;5075393;28;8775;-71
2021/11/30 11:26:22;;;;;;;;;14.00;14.00;12.30;38.60;;;;;;5075403;28;8794;-69
2021/11/30 11:28:49;;;;;;;;;17.33;17.33;10.50;42.10;;;;;;5075273;28;8780;-70
2021/11/30 11:31:15;;;;;;;;;17.00;17.00;11.20;42.70;;;;;;5075447;28;8804;-71
2021/11/30 11:33:41;;;;;;;;;18.67;18.67;11.60;41.40;;;;;;5075350;28;8768;-69
2021/11/30 11:36:07;;;;;;;;;18.33;18.33;12.20;41.60;;;;;;5075233;28;8787;-68
2021/11/30 11:38:34;;;;;;;;;18.33;18.00;13.70;37.00;;;;;;5075256;28;8811;-72
2021/11/30 11:41:00;;;;;;;;;21.33;21.33;14.60;37.90;;;;;;5075181;28;8752;-69
2021/11/30 11:43:26;;;;;;;;;22.33;22.33;18.60;31.40;;;;;;5074998;28;8777;-70
2021/11/30 11:45:53;;;;;;;;;22.00;19.00;20.30;28.60;;;;;;5075180;28;8796;-72
2021/11/30 11:48:20;;;;;;;;;21.67;20.67;20.70;26.50;;;;;;5075185;28;8795;-72
2021/11/30 11:51:00;;;;;;;;;13.00;13.00;21.30;27.10;;;;;;5074875;28;8780;-72
2021/11/30 11:53:38;;;;;;;;;9.00;9.00;22.40;24.50;;;;;;5075237;28;8799;-71
2021/11/30 11:56:09;;;;;;;;;9.33;9.33;21.20;24.60;;;;;;5074804;28;8764;-71
2021/11/30 11:58:35;;;;;;;;;10.00;10.00;19.90;25.40;;;;;;5075068;28;12104;-69
2021/11/30 12:01:02;;;;;;;;;12.00;12.00;19.60;26.30;;;;;;5074855;28;8775;-67
2021/11/30 12:03:58;;;;;;;;;15.67;15.67;19.40;27.20;;;;;;5072976;28;8780;-68
2021/11/30 12:06:27;;;;;;;;;9.00;9.00;20.20;26.60;;;;;;5074572;28;8804;-69
2021/11/30 12:09:19;;;;;;;;;10.33;10.33;20.00;26.40;;;;;;5074840;28;8803;-67
2021/11/30 12:11:55;;;;;;;;;12.00;12.00;19.70;26.30;;;;;;5074499;28;11525;-68
2021/11/30 12:14:34;;;;;;;;;10.00;10.00;19.50;27.10;;;;;;5074799;28;8764;-67
2021/11/30 12:17:00;;;;;;;;;9.33;9.33;19.00;27.10;;;;;;5073749;28;8792;-68
2021/11/30 12:19:28;;;;;;;;;12.67;12.67;17.10;26.80;;;;;;5069214;28;11607;-69
2021/11/30 12:21:55;;;;;;;;;11.00;11.00;18.70;27.60;;;;;;5073185;28;8785;-68
2021/11/30 12:24:44;;;;;;;;;9.33;9.33;12.90;30.60;;;;;;5072288;28;8887;-69
2021/11/30 12:27:24;;;;;;;;;10.00;10.00;13.70;31.90;;;;;;5072064;28;8854;-70
2021/11/30 12:29:52;;;;;;;;;10.67;10.67;13.10;32.70;;;;;;5072146;28;8903;-69
2021/11/30 12:32:30;;;;;;;;;8.00;8.00;15.40;31.80;;;;;;5069910;28;8765;-69
2021/11/30 12:35:00;;;;;;;;;10.00;10.00;16.90;28.50;;;;;;5070832;28;8794;-69
2021/11/30 12:37:31;;;;;;;;;12.33;11.67;17.50;27.40;;;;;;5073261;28;8764;-69
2021/11/30 12:40:15;;;;;;;;;10.00;10.00;16.70;27.50;;;;;;5070679;28;8808;-68
2021/11/30 12:42:41;;;;;;;;;8.00;8.00;16.60;27.40;;;;;;5068613;28;8772;-70
2021/11/30 12:45:10;;;;;;;;;8.33;8.33;16.90;26.80;;;;;;5072382;28;8795;-69
2021/11/30 12:47:36;;;;;;;;;9.00;9.00;17.20;26.50;;;;;;5072908;28;8799;-68
2021/11/30 12:50:06;;;;;;;;;12.33;12.33;16.00;27.10;;;;;;5072784;28;8757;-69
2021/11/30 12:52:34;;;;;;;;;11.67;11.67;15.30;28.30;;;;;;5070345;28;8749;-69
2021/11/30 12:55:00;;;;;;;;;9.33;9.33;15.20;28.40;;;;;;5067550;28;8752;-69
2021/11/30 12:57:30;;;;;;;;;6.00;6.00;15.50;28.00;;;;;;5060069;28;8795;-68
2021/11/30 13:00:19;;;;;;;;;8.00;8.00;14.90;28.70;;;;;;5068873;28;8894;-68
2021/11/30 13:02:47;;;;;;;;;8.00;8.00;15.10;29.00;;;;;;5058833;28;8842;-70
2021/11/30 13:05:17;;;;;;;;;11.00;11.00;15.10;28.50;;;;;;5069862;28;8757;-69
2021/11/30 13:07:49;;;;;;;;;7.33;7.33;15.60;27.00;;;;;;5070117;28;8777;-69
2021/11/30 13:10:27;;;;;;;;;8.00;8.00;13.80;29.10;;;;;;5069191;28;8760;-70